sensor_id;sensor_type;location;lat;lon;timestamp;temperature;humidity
13806;DHT22;6974;53.606;9.872;2023-02-01T00:01:06;6.60;99.90
13806;DHT22;6974;53.606;9.872;2023-02-01T00:03:33;6.60;99.90
13806;DHT22;6974;53.606;9.872;2023-02-01T00:06:00;6.60;99.90
13806;DHT22;6974;53.606;9.872;2023-02-01T00:08:28;6.60;99.90
13806;DHT22;6974;53.606;9.872;2023-02-01T00:10:59;6.50;99.90
13806;DHT22;6974;53.606;9.872;2023-02-01T00:13:29;6.50;99.90
13806;DHT22;6974;53.606;9.872;2023-02-01T00:16:03;6.50;99.90
13806;DHT22;6974;53.606;9.872;2023-02-01T00:18:30;6.50;99.90
13806;DHT22;6974;53.606;9.872;2023-02-01T00:20:57;6.60;99.90
13806;DHT22;6974;53.606;9.872;2023-02-01T00:23:23;6.60;99.90
13806;DHT22;6974;53.606;9.872;2023-02-01T00:25:50;6.60;99.90
13806;DHT22;6974;53.606;9.872;2023-02-01T00:28:17;6.60;99.90
13806;DHT22;6974;53.606;9.872;2023-02-01T00:30:45;6.60;99.90
13806;DHT22;6974;53.606;9.872;2023-02-01T00:33:12;6.50;99.90
13806;DHT22;6974;53.606;9.872;2023-02-01T00:35:39;6.60;99.90
13806;DHT22;6974;53.606;9.872;2023-02-01T00:38:06;6.60;99.90
13806;DHT22;6974;53.606;9.872;2023-02-01T00:40:33;6.70;99.90
13806;DHT22;6974;53.606;9.872;2023-02-01T00:43:00;6.70;99.90
13806;DHT22;6974;53.606;9.872;2023-02-01T00:45:26;6.70;99.90
13806;DHT22;6974;53.606;9.872;2023-02-01T00:47:55;6.70;99.90
13806;DHT22;6974;53.606;9.872;2023-02-01T00:50:21;6.70;99.90
13806;DHT22;6974;53.606;9.872;2023-02-01T00:52:48;6.70;99.90
13806;DHT22;6974;53.606;9.872;2023-02-01T00:55:15;6.80;99.90
13806;DHT22;6974;53.606;9.872;2023-02-01T00:57:42;6.80;99.90
13806;DHT22;6974;53.606;9.872;2023-02-01T01:00:10;6.80;99.90
13806;DHT22;6974;53.606;9.872;2023-02-01T01:02:37;6.80;99.90
13806;DHT22;6974;53.606;9.872;2023-02-01T01:05:05;6.70;99.90
13806;DHT22;6974;53.606;9.872;2023-02-01T01:07:32;6.70;99.90
13806;DHT22;6974;53.606;9.872;2023-02-01T01:09:59;6.80;99.90
13806;DHT22;6974;53.606;9.872;2023-02-01T01:12:26;6.80;99.90
13806;DHT22;6974;53.606;9.872;2023-02-01T01:14:53;6.70;99.90
13806;DHT22;6974;53.606;9.872;2023-02-01T01:17:20;6.80;99.90
13806;DHT22;6974;53.606;9.872;2023-02-01T01:19:47;6.80;99.90
13806;DHT22;6974;53.606;9.872;2023-02-01T01:22:15;6.80;99.90
13806;DHT22;6974;53.606;9.872;2023-02-01T01:24:43;6.90;99.90
13806;DHT22;6974;53.606;9.872;2023-02-01T01:27:10;6.80;99.90
13806;DHT22;6974;53.606;9.872;2023-02-01T01:29:37;6.90;99.90
13806;DHT22;6974;53.606;9.872;2023-02-01T01:32:04;6.90;99.90
13806;DHT22;6974;53.606;9.872;2023-02-01T01:34:30;6.90;99.90
13806;DHT22;6974;53.606;9.872;2023-02-01T01:36:57;6.90;99.90
13806;DHT22;6974;53.606;9.872;2023-02-01T01:39:26;6.90;99.90
13806;DHT22;6974;53.606;9.872;2023-02-01T01:41:52;6.90;99.90
13806;DHT22;6974;53.606;9.872;2023-02-01T01:44:57;6.90;99.90
13806;DHT22;6974;53.606;9.872;2023-02-01T01:47:25;6.80;99.90
13806;DHT22;6974;53.606;9.872;2023-02-01T01:49:53;6.90;99.90
13806;DHT22;6974;53.606;9.872;2023-02-01T01:52:21;6.90;99.90
13806;DHT22;6974;53.606;9.872;2023-02-01T01:54:51;6.90;99.90
13806;DHT22;6974;53.606;9.872;2023-02-01T01:57:23;6.90;99.90
13806;DHT22;6974;53.606;9.872;2023-02-01T01:59:58;6.90;99.90
13806;DHT22;6974;53.606;9.872;2023-02-01T02:02:27;6.90;99.90
13806;DHT22;6974;53.606;9.872;2023-02-01T02:04:54;6.90;99.90
13806;DHT22;6974;53.606;9.872;2023-02-01T02:07:24;6.90;99.90
13806;DHT22;6974;53.606;9.872;2023-02-01T02:09:53;6.90;99.90
13806;DHT22;6974;53.606;9.872;2023-02-01T02:12:21;6.90;99.90
13806;DHT22;6974;53.606;9.872;2023-02-01T02:14:48;7.00;99.90
13806;DHT22;6974;53.606;9.872;2023-02-01T02:17:30;6.90;99.90
13806;DHT22;6974;53.606;9.872;2023-02-01T02:20:22;6.90;99.90
13806;DHT22;6974;53.606;9.872;2023-02-01T02:23:19;6.90;99.90
13806;DHT22;6974;53.606;9.872;2023-02-01T02:26:19;6.90;99.90
13806;DHT22;6974;53.606;9.872;2023-02-01T02:29:19;7.00;99.90
13806;DHT22;6974;53.606;9.872;2023-02-01T02:35:01;7.10;99.90
13806;DHT22;6974;53.606;9.872;2023-02-01T02:37:38;7.00;99.90
13806;DHT22;6974;53.606;9.872;2023-02-01T02:40:11;7.00;99.90
13806;DHT22;6974;53.606;9.872;2023-02-01T02:42:46;7.00;99.90
13806;DHT22;6974;53.606;9.872;2023-02-01T02:45:40;7.00;99.90
13806;DHT22;6974;53.606;9.872;2023-02-01T02:48:30;7.10;99.90
13806;DHT22;6974;53.606;9.872;2023-02-01T02:51:07;7.00;99.90
13806;DHT22;6974;53.606;9.872;2023-02-01T02:53:58;7.00;99.90
13806;DHT22;6974;53.606;9.872;2023-02-01T02:56:44;6.90;99.90
13806;DHT22;6974;53.606;9.872;2023-02-01T02:59:29;6.90;99.90
13806;DHT22;6974;53.606;9.872;2023-02-01T03:02:16;6.90;99.90
13806;DHT22;6974;53.606;9.872;2023-02-01T03:05:01;6.90;99.90
13806;DHT22;6974;53.606;9.872;2023-02-01T03:08:03;6.80;99.90
13806;DHT22;6974;53.606;9.872;2023-02-01T03:10:42;6.80;99.90
13806;DHT22;6974;53.606;9.872;2023-02-01T03:13:13;6.80;99.90
13806;DHT22;6974;53.606;9.872;2023-02-01T03:15:43;6.80;99.90
13806;DHT22;6974;53.606;9.872;2023-02-01T03:18:19;6.80;99.90
13806;DHT22;6974;53.606;9.872;2023-02-01T03:20:51;6.80;99.90
13806;DHT22;6974;53.606;9.872;2023-02-01T03:23:25;6.70;99.90
13806;DHT22;6974;53.606;9.872;2023-02-01T03:25:55;6.70;99.90
13806;DHT22;6974;53.606;9.872;2023-02-01T03:28:23;6.70;99.90
13806;DHT22;6974;53.606;9.872;2023-02-01T03:30:52;6.60;99.90
13806;DHT22;6974;53.606;9.872;2023-02-01T03:33:21;6.60;99.90
13806;DHT22;6974;53.606;9.872;2023-02-01T03:35:55;6.50;99.90
13806;DHT22;6974;53.606;9.872;2023-02-01T03:38:29;6.50;99.90
13806;DHT22;6974;53.606;9.872;2023-02-01T03:41:01;6.50;99.90
13806;DHT22;6974;53.606;9.872;2023-02-01T03:43:31;6.50;99.90
13806;DHT22;6974;53.606;9.872;2023-02-01T03:46:06;6.50;99.90
13806;DHT22;6974;53.606;9.872;2023-02-01T03:48:35;6.50;99.90
13806;DHT22;6974;53.606;9.872;2023-02-01T03:51:05;6.60;99.90
13806;DHT22;6974;53.606;9.872;2023-02-01T03:53:35;6.50;99.90
13806;DHT22;6974;53.606;9.872;2023-02-01T03:56:03;6.50;99.90
13806;DHT22;6974;53.606;9.872;2023-02-01T03:58:30;6.50;99.90
13806;DHT22;6974;53.606;9.872;2023-02-01T04:00:59;6.60;99.90
13806;DHT22;6974;53.606;9.872;2023-02-01T04:03:27;6.60;99.90
13806;DHT22;6974;53.606;9.872;2023-02-01T04:05:54;6.60;99.90
13806;DHT22;6974;53.606;9.872;2023-02-01T04:08:23;6.50;99.90
13806;DHT22;6974;53.606;9.872;2023-02-01T04:10:51;6.50;99.90
13806;DHT22;6974;53.606;9.872;2023-02-01T04:13:18;6.50;99.90
13806;DHT22;6974;53.606;9.872;2023-02-01T04:15:46;6.40;99.90
13806;DHT22;6974;53.606;9.872;2023-02-01T04:18:15;6.50;99.90
13806;DHT22;6974;53.606;9.872;2023-02-01T04:20:43;6.50;99.90
13806;DHT22;6974;53.606;9.872;2023-02-01T04:23:10;6.50;99.90
13806;DHT22;6974;53.606;9.872;2023-02-01T04:25:37;6.50;99.90
13806;DHT22;6974;53.606;9.872;2023-02-01T04:28:05;6.50;99.90
13806;DHT22;6974;53.606;9.872;2023-02-01T04:30:32;6.50;99.90
13806;DHT22;6974;53.606;9.872;2023-02-01T04:32:59;6.50;99.90
13806;DHT22;6974;53.606;9.872;2023-02-01T04:35:29;6.50;99.90
13806;DHT22;6974;53.606;9.872;2023-02-01T04:37:55;6.50;99.90
13806;DHT22;6974;53.606;9.872;2023-02-01T04:40:22;6.40;99.90
13806;DHT22;6974;53.606;9.872;2023-02-01T04:42:49;6.40;99.90
13806;DHT22;6974;53.606;9.872;2023-02-01T04:45:17;6.40;99.90
13806;DHT22;6974;53.606;9.872;2023-02-01T04:47:44;6.30;99.90
13806;DHT22;6974;53.606;9.872;2023-02-01T04:50:11;6.30;99.90
13806;DHT22;6974;53.606;9.872;2023-02-01T04:52:38;6.30;99.90
13806;DHT22;6974;53.606;9.872;2023-02-01T04:55:05;6.20;99.90
13806;DHT22;6974;53.606;9.872;2023-02-01T04:57:32;6.20;99.90
13806;DHT22;6974;53.606;9.872;2023-02-01T04:59:59;6.30;99.90
13806;DHT22;6974;53.606;9.872;2023-02-01T05:02:27;6.20;99.90
13806;DHT22;6974;53.606;9.872;2023-02-01T05:04:54;6.20;99.90
13806;DHT22;6974;53.606;9.872;2023-02-01T05:07:21;6.10;99.90
13806;DHT22;6974;53.606;9.872;2023-02-01T05:09:48;6.00;99.90
13806;DHT22;6974;53.606;9.872;2023-02-01T05:12:14;6.00;99.90
13806;DHT22;6974;53.606;9.872;2023-02-01T05:14:59;5.90;99.90
13806;DHT22;6974;53.606;9.872;2023-02-01T05:17:27;5.80;99.90
13806;DHT22;6974;53.606;9.872;2023-02-01T05:19:54;5.70;99.90
13806;DHT22;6974;53.606;9.872;2023-02-01T05:22:21;5.70;99.90
13806;DHT22;6974;53.606;9.872;2023-02-01T05:24:47;5.70;99.90
13806;DHT22;6974;53.606;9.872;2023-02-01T05:27:14;5.60;99.90
13806;DHT22;6974;53.606;9.872;2023-02-01T05:29:41;5.60;99.90
13806;DHT22;6974;53.606;9.872;2023-02-01T05:32:09;5.60;99.90
13806;DHT22;6974;53.606;9.872;2023-02-01T05:34:37;5.60;99.90
13806;DHT22;6974;53.606;9.872;2023-02-01T05:37:04;5.60;99.90
13806;DHT22;6974;53.606;9.872;2023-02-01T05:39:31;5.60;99.90
13806;DHT22;6974;53.606;9.872;2023-02-01T05:41:58;5.60;99.90
13806;DHT22;6974;53.606;9.872;2023-02-01T05:44:25;5.60;99.90
13806;DHT22;6974;53.606;9.872;2023-02-01T05:46:51;5.60;99.90
13806;DHT22;6974;53.606;9.872;2023-02-01T05:49:18;5.40;99.90
13806;DHT22;6974;53.606;9.872;2023-02-01T05:51:46;5.40;99.90
13806;DHT22;6974;53.606;9.872;2023-02-01T05:54:13;5.50;99.90
13806;DHT22;6974;53.606;9.872;2023-02-01T05:56:40;5.50;99.90
13806;DHT22;6974;53.606;9.872;2023-02-01T05:59:07;5.40;99.90
13806;DHT22;6974;53.606;9.872;2023-02-01T06:01:35;5.40;99.90
13806;DHT22;6974;53.606;9.872;2023-02-01T06:04:02;5.40;99.90
13806;DHT22;6974;53.606;9.872;2023-02-01T06:06:28;5.40;99.90
13806;DHT22;6974;53.606;9.872;2023-02-01T06:08:57;5.40;99.90
13806;DHT22;6974;53.606;9.872;2023-02-01T06:11:24;5.30;99.90
13806;DHT22;6974;53.606;9.872;2023-02-01T06:13:51;5.30;99.90
13806;DHT22;6974;53.606;9.872;2023-02-01T06:16:18;5.40;99.90
13806;DHT22;6974;53.606;9.872;2023-02-01T06:18:44;5.40;99.90
13806;DHT22;6974;53.606;9.872;2023-02-01T06:21:11;5.30;99.90
13806;DHT22;6974;53.606;9.872;2023-02-01T06:23:39;5.30;99.90
13806;DHT22;6974;53.606;9.872;2023-02-01T06:26:07;5.30;99.90
13806;DHT22;6974;53.606;9.872;2023-02-01T06:28:34;5.40;99.90
13806;DHT22;6974;53.606;9.872;2023-02-01T06:31:03;5.40;99.90
13806;DHT22;6974;53.606;9.872;2023-02-01T06:33:32;5.40;99.90
13806;DHT22;6974;53.606;9.872;2023-02-01T06:35:59;5.40;99.90
13806;DHT22;6974;53.606;9.872;2023-02-01T06:38:26;5.50;99.90
13806;DHT22;6974;53.606;9.872;2023-02-01T06:40:54;5.50;99.90
13806;DHT22;6974;53.606;9.872;2023-02-01T06:43:22;5.50;99.90
13806;DHT22;6974;53.606;9.872;2023-02-01T06:45:50;5.60;99.90
13806;DHT22;6974;53.606;9.872;2023-02-01T06:48:17;5.60;99.90
13806;DHT22;6974;53.606;9.872;2023-02-01T06:50:44;5.60;99.90
13806;DHT22;6974;53.606;9.872;2023-02-01T06:53:11;5.60;99.90
13806;DHT22;6974;53.606;9.872;2023-02-01T06:55:38;5.60;99.90
13806;DHT22;6974;53.606;9.872;2023-02-01T06:58:05;5.60;99.90
13806;DHT22;6974;53.606;9.872;2023-02-01T07:00:33;5.70;99.90
13806;DHT22;6974;53.606;9.872;2023-02-01T07:03:00;5.70;99.90
13806;DHT22;6974;53.606;9.872;2023-02-01T07:05:27;5.70;99.90
13806;DHT22;6974;53.606;9.872;2023-02-01T07:07:54;5.70;99.90
13806;DHT22;6974;53.606;9.872;2023-02-01T07:10:21;5.70;99.90
13806;DHT22;6974;53.606;9.872;2023-02-01T07:12:48;5.80;99.90
13806;DHT22;6974;53.606;9.872;2023-02-01T07:15:14;5.80;99.90
13806;DHT22;6974;53.606;9.872;2023-02-01T07:17:43;5.80;99.90
13806;DHT22;6974;53.606;9.872;2023-02-01T07:20:11;5.80;99.90
13806;DHT22;6974;53.606;9.872;2023-02-01T07:22:38;5.80;99.90
13806;DHT22;6974;53.606;9.872;2023-02-01T07:25:05;5.80;99.90
13806;DHT22;6974;53.606;9.872;2023-02-01T07:27:34;5.90;99.90
13806;DHT22;6974;53.606;9.872;2023-02-01T07:30:01;5.90;99.90
13806;DHT22;6974;53.606;9.872;2023-02-01T07:32:28;6.00;99.90
13806;DHT22;6974;53.606;9.872;2023-02-01T07:34:57;6.00;99.90
13806;DHT22;6974;53.606;9.872;2023-02-01T07:37:24;6.00;99.90
13806;DHT22;6974;53.606;9.872;2023-02-01T07:39:52;6.00;99.90
13806;DHT22;6974;53.606;9.872;2023-02-01T07:42:18;6.00;99.90
13806;DHT22;6974;53.606;9.872;2023-02-01T07:44:46;6.00;99.90
13806;DHT22;6974;53.606;9.872;2023-02-01T07:47:12;6.10;99.90
13806;DHT22;6974;53.606;9.872;2023-02-01T07:49:39;6.10;99.90
13806;DHT22;6974;53.606;9.872;2023-02-01T07:52:08;6.20;99.90
13806;DHT22;6974;53.606;9.872;2023-02-01T07:54:36;6.30;99.90
13806;DHT22;6974;53.606;9.872;2023-02-01T07:57:03;6.30;99.90
13806;DHT22;6974;53.606;9.872;2023-02-01T07:59:30;6.40;99.90
13806;DHT22;6974;53.606;9.872;2023-02-01T08:01:57;6.40;99.90
13806;DHT22;6974;53.606;9.872;2023-02-01T08:04:23;6.40;99.90
13806;DHT22;6974;53.606;9.872;2023-02-01T08:06:50;6.50;99.90
13806;DHT22;6974;53.606;9.872;2023-02-01T08:09:18;6.50;99.90
13806;DHT22;6974;53.606;9.872;2023-02-01T08:11:45;6.50;99.90
13806;DHT22;6974;53.606;9.872;2023-02-01T08:14:12;6.50;99.90
13806;DHT22;6974;53.606;9.872;2023-02-01T08:16:39;6.50;99.90
13806;DHT22;6974;53.606;9.872;2023-02-01T08:19:06;6.50;99.90
13806;DHT22;6974;53.606;9.872;2023-02-01T08:21:33;6.50;99.90
13806;DHT22;6974;53.606;9.872;2023-02-01T08:24:06;6.60;99.90
13806;DHT22;6974;53.606;9.872;2023-02-01T08:26:34;6.60;99.90
13806;DHT22;6974;53.606;9.872;2023-02-01T08:29:03;6.60;99.90
13806;DHT22;6974;53.606;9.872;2023-02-01T08:31:31;6.60;99.90
13806;DHT22;6974;53.606;9.872;2023-02-01T08:33:59;6.60;99.90
13806;DHT22;6974;53.606;9.872;2023-02-01T08:36:28;6.60;99.90
13806;DHT22;6974;53.606;9.872;2023-02-01T08:38:56;6.50;99.90
13806;DHT22;6974;53.606;9.872;2023-02-01T08:41:25;6.40;99.90
13806;DHT22;6974;53.606;9.872;2023-02-01T08:43:53;6.40;99.90
13806;DHT22;6974;53.606;9.872;2023-02-01T08:46:21;6.40;99.90
13806;DHT22;6974;53.606;9.872;2023-02-01T08:48:48;6.40;99.90
13806;DHT22;6974;53.606;9.872;2023-02-01T08:51:17;6.40;99.90
13806;DHT22;6974;53.606;9.872;2023-02-01T08:53:44;6.40;99.90
13806;DHT22;6974;53.606;9.872;2023-02-01T08:56:13;6.40;99.90
13806;DHT22;6974;53.606;9.872;2023-02-01T08:58:41;6.50;99.90
13806;DHT22;6974;53.606;9.872;2023-02-01T09:01:12;6.50;99.90
13806;DHT22;6974;53.606;9.872;2023-02-01T09:03:39;6.60;99.90
13806;DHT22;6974;53.606;9.872;2023-02-01T09:06:08;6.60;99.90
13806;DHT22;6974;53.606;9.872;2023-02-01T09:08:36;6.60;99.90
13806;DHT22;6974;53.606;9.872;2023-02-01T09:11:05;6.70;99.90
13806;DHT22;6974;53.606;9.872;2023-02-01T09:13:33;6.80;99.90
13806;DHT22;6974;53.606;9.872;2023-02-01T09:16:00;6.80;99.90
13806;DHT22;6974;53.606;9.872;2023-02-01T09:18:29;6.80;99.90
13806;DHT22;6974;53.606;9.872;2023-02-01T09:20:55;6.80;99.90
13806;DHT22;6974;53.606;9.872;2023-02-01T09:23:22;6.90;99.90
13806;DHT22;6974;53.606;9.872;2023-02-01T09:25:49;6.90;99.90
13806;DHT22;6974;53.606;9.872;2023-02-01T09:28:17;7.00;99.90
13806;DHT22;6974;53.606;9.872;2023-02-01T09:30:44;7.10;99.90
13806;DHT22;6974;53.606;9.872;2023-02-01T09:33:10;7.10;99.90
13806;DHT22;6974;53.606;9.872;2023-02-01T09:35:39;7.10;99.90
13806;DHT22;6974;53.606;9.872;2023-02-01T09:38:05;7.20;99.90
13806;DHT22;6974;53.606;9.872;2023-02-01T09:40:33;7.20;99.90
13806;DHT22;6974;53.606;9.872;2023-02-01T09:43:15;7.20;99.90
13806;DHT22;6974;53.606;9.872;2023-02-01T09:45:54;7.20;99.90
13806;DHT22;6974;53.606;9.872;2023-02-01T09:48:27;7.20;99.90
13806;DHT22;6974;53.606;9.872;2023-02-01T09:50:59;7.30;99.90
13806;DHT22;6974;53.606;9.872;2023-02-01T09:53:29;7.30;99.90
13806;DHT22;6974;53.606;9.872;2023-02-01T09:56:00;7.30;99.90
13806;DHT22;6974;53.606;9.872;2023-02-01T09:58:33;7.30;99.90
13806;DHT22;6974;53.606;9.872;2023-02-01T10:01:03;7.40;99.90
13806;DHT22;6974;53.606;9.872;2023-02-01T10:03:33;7.40;99.90
13806;DHT22;6974;53.606;9.872;2023-02-01T10:06:20;7.50;99.90
13806;DHT22;6974;53.606;9.872;2023-02-01T10:09:05;7.50;99.90
13806;DHT22;6974;53.606;9.872;2023-02-01T10:11:42;7.50;99.90
13806;DHT22;6974;53.606;9.872;2023-02-01T10:14:30;7.60;99.90
13806;DHT22;6974;53.606;9.872;2023-02-01T10:17:04;7.60;99.90
13806;DHT22;6974;53.606;9.872;2023-02-01T10:19:41;7.60;99.90
13806;DHT22;6974;53.606;9.872;2023-02-01T10:22:23;7.60;99.90
13806;DHT22;6974;53.606;9.872;2023-02-01T10:24:59;7.50;99.90
13806;DHT22;6974;53.606;9.872;2023-02-01T10:27:34;7.50;99.90
13806;DHT22;6974;53.606;9.872;2023-02-01T10:30:09;7.60;99.90
13806;DHT22;6974;53.606;9.872;2023-02-01T10:32:43;7.50;99.90
13806;DHT22;6974;53.606;9.872;2023-02-01T10:35:14;7.50;99.90
13806;DHT22;6974;53.606;9.872;2023-02-01T10:37:44;7.40;99.90
13806;DHT22;6974;53.606;9.872;2023-02-01T10:40:20;7.30;99.90
13806;DHT22;6974;53.606;9.872;2023-02-01T10:42:48;7.30;99.90
13806;DHT22;6974;53.606;9.872;2023-02-01T10:45:17;7.20;99.90
13806;DHT22;6974;53.606;9.872;2023-02-01T10:47:46;7.20;99.90
13806;DHT22;6974;53.606;9.872;2023-02-01T10:50:19;7.20;99.90
13806;DHT22;6974;53.606;9.872;2023-02-01T10:52:52;7.20;99.90
13806;DHT22;6974;53.606;9.872;2023-02-01T10:55:33;7.20;99.90
13806;DHT22;6974;53.606;9.872;2023-02-01T10:58:02;7.20;99.90
13806;DHT22;6974;53.606;9.872;2023-02-01T11:00:44;7.10;99.90
13806;DHT22;6974;53.606;9.872;2023-02-01T11:03:39;7.20;99.90
13806;DHT22;6974;53.606;9.872;2023-02-01T11:06:18;7.10;99.90
13806;DHT22;6974;53.606;9.872;2023-02-01T11:08:49;7.10;99.90
13806;DHT22;6974;53.606;9.872;2023-02-01T11:11:16;7.10;99.90
13806;DHT22;6974;53.606;9.872;2023-02-01T11:13:44;7.20;99.90
13806;DHT22;6974;53.606;9.872;2023-02-01T11:16:13;7.20;99.90
13806;DHT22;6974;53.606;9.872;2023-02-01T11:18:41;7.20;99.90
13806;DHT22;6974;53.606;9.872;2023-02-01T11:21:10;7.20;99.90
13806;DHT22;6974;53.606;9.872;2023-02-01T11:24:16;7.20;99.90
13806;DHT22;6974;53.606;9.872;2023-02-01T11:26:54;7.20;99.90
13806;DHT22;6974;53.606;9.872;2023-02-01T11:29:25;7.20;99.90
13806;DHT22;6974;53.606;9.872;2023-02-01T11:31:56;7.30;99.90
13806;DHT22;6974;53.606;9.872;2023-02-01T11:34:26;7.30;99.90
13806;DHT22;6974;53.606;9.872;2023-02-01T11:36:58;7.40;99.90
13806;DHT22;6974;53.606;9.872;2023-02-01T11:39:30;7.40;99.90
13806;DHT22;6974;53.606;9.872;2023-02-01T11:42:02;7.40;99.90
13806;DHT22;6974;53.606;9.872;2023-02-01T11:44:33;7.50;99.90
13806;DHT22;6974;53.606;9.872;2023-02-01T11:47:20;7.50;99.90
13806;DHT22;6974;53.606;9.872;2023-02-01T11:49:48;7.40;99.90
13806;DHT22;6974;53.606;9.872;2023-02-01T11:52:21;7.30;99.90
13806;DHT22;6974;53.606;9.872;2023-02-01T11:55:06;7.30;99.90
13806;DHT22;6974;53.606;9.872;2023-02-01T11:57:50;7.30;99.90
13806;DHT22;6974;53.606;9.872;2023-02-01T12:00:39;7.30;99.90
13806;DHT22;6974;53.606;9.872;2023-02-01T12:03:26;7.20;99.90
13806;DHT22;6974;53.606;9.872;2023-02-01T12:05:59;7.20;99.90
13806;DHT22;6974;53.606;9.872;2023-02-01T12:08:54;7.20;99.90
13806;DHT22;6974;53.606;9.872;2023-02-01T12:11:38;7.20;99.90
13806;DHT22;6974;53.606;9.872;2023-02-01T12:14:18;7.20;99.90
13806;DHT22;6974;53.606;9.872;2023-02-01T12:16:55;7.20;99.90
13806;DHT22;6974;53.606;9.872;2023-02-01T12:19:55;7.10;99.90
13806;DHT22;6974;53.606;9.872;2023-02-01T12:22:36;7.10;99.90
13806;DHT22;6974;53.606;9.872;2023-02-01T12:25:25;7.00;99.90
13806;DHT22;6974;53.606;9.872;2023-02-01T12:31:19;6.90;99.90
13806;DHT22;6974;53.606;9.872;2023-02-01T12:34:12;6.80;99.90
13806;DHT22;6974;53.606;9.872;2023-02-01T12:36:46;6.70;99.90
13806;DHT22;6974;53.606;9.872;2023-02-01T12:39:22;6.70;99.90
13806;DHT22;6974;53.606;9.872;2023-02-01T12:41:57;6.60;99.90
13806;DHT22;6974;53.606;9.872;2023-02-01T12:44:33;6.40;99.90
13806;DHT22;6974;53.606;9.872;2023-02-01T12:47:06;6.40;99.90
13806;DHT22;6974;53.606;9.872;2023-02-01T12:49:44;6.30;99.90
13806;DHT22;6974;53.606;9.872;2023-02-01T12:52:16;6.30;99.90
13806;DHT22;6974;53.606;9.872;2023-02-01T12:54:48;6.30;99.90
13806;DHT22;6974;53.606;9.872;2023-02-01T12:57:18;6.30;99.90
13806;DHT22;6974;53.606;9.872;2023-02-01T12:59:54;6.30;99.90
13806;DHT22;6974;53.606;9.872;2023-02-01T13:02:25;6.30;99.90
13806;DHT22;6974;53.606;9.872;2023-02-01T13:04:59;6.40;99.90
13806;DHT22;6974;53.606;9.872;2023-02-01T13:07:32;6.30;99.90
13806;DHT22;6974;53.606;9.872;2023-02-01T13:10:05;6.40;99.90
13806;DHT22;6974;53.606;9.872;2023-02-01T13:12:38;6.30;99.90
13806;DHT22;6974;53.606;9.872;2023-02-01T13:15:14;6.30;99.90
13806;DHT22;6974;53.606;9.872;2023-02-01T13:17:42;6.40;99.90
13806;DHT22;6974;53.606;9.872;2023-02-01T13:20:19;6.60;99.90
13806;DHT22;6974;53.606;9.872;2023-02-01T13:22:51;6.70;99.90
13806;DHT22;6974;53.606;9.872;2023-02-01T13:25:27;6.80;99.90
13806;DHT22;6974;53.606;9.872;2023-02-01T13:27:58;6.90;99.90
13806;DHT22;6974;53.606;9.872;2023-02-01T13:30:38;7.00;99.90
13806;DHT22;6974;53.606;9.872;2023-02-01T13:33:33;7.00;99.90
13806;DHT22;6974;53.606;9.872;2023-02-01T13:36:29;7.10;99.90
13806;DHT22;6974;53.606;9.872;2023-02-01T13:42:04;7.10;99.90
13806;DHT22;6974;53.606;9.872;2023-02-01T13:44:42;7.10;99.90
13806;DHT22;6974;53.606;9.872;2023-02-01T13:47:23;7.20;99.90
13806;DHT22;6974;53.606;9.872;2023-02-01T13:49:52;7.10;99.90
13806;DHT22;6974;53.606;9.872;2023-02-01T13:52:28;7.10;99.90
13806;DHT22;6974;53.606;9.872;2023-02-01T13:55:13;7.10;99.90
13806;DHT22;6974;53.606;9.872;2023-02-01T13:57:42;7.10;99.90
13806;DHT22;6974;53.606;9.872;2023-02-01T14:00:23;7.10;99.90
13806;DHT22;6974;53.606;9.872;2023-02-01T14:03:22;7.00;99.90
13806;DHT22;6974;53.606;9.872;2023-02-01T14:06:18;7.00;99.90
13806;DHT22;6974;53.606;9.872;2023-02-01T14:09:33;7.00;99.90
13806;DHT22;6974;53.606;9.872;2023-02-01T14:15:24;7.20;99.90
13806;DHT22;6974;53.606;9.872;2023-02-01T14:17:52;7.30;99.90
13806;DHT22;6974;53.606;9.872;2023-02-01T14:20:45;7.30;99.90
13806;DHT22;6974;53.606;9.872;2023-02-01T14:23:17;7.30;99.90
13806;DHT22;6974;53.606;9.872;2023-02-01T14:25:44;7.30;99.90
13806;DHT22;6974;53.606;9.872;2023-02-01T14:28:23;7.20;99.90
13806;DHT22;6974;53.606;9.872;2023-02-01T14:30:51;7.10;99.90
13806;DHT22;6974;53.606;9.872;2023-02-01T14:33:21;7.00;99.90
13806;DHT22;6974;53.606;9.872;2023-02-01T14:36:03;6.60;99.90
13806;DHT22;6974;53.606;9.872;2023-02-01T14:38:31;6.40;99.90
13806;DHT22;6974;53.606;9.872;2023-02-01T14:41:18;6.30;99.90
13806;DHT22;6974;53.606;9.872;2023-02-01T14:43:50;6.30;99.90
13806;DHT22;6974;53.606;9.872;2023-02-01T14:46:17;6.20;99.90
13806;DHT22;6974;53.606;9.872;2023-02-01T14:48:46;6.20;99.90
13806;DHT22;6974;53.606;9.872;2023-02-01T14:51:16;6.20;99.90
13806;DHT22;6974;53.606;9.872;2023-02-01T14:53:44;6.20;99.90
13806;DHT22;6974;53.606;9.872;2023-02-01T14:56:15;6.10;99.90
13806;DHT22;6974;53.606;9.872;2023-02-01T14:58:52;6.20;99.90
13806;DHT22;6974;53.606;9.872;2023-02-01T15:01:24;6.20;99.90
13806;DHT22;6974;53.606;9.872;2023-02-01T15:04:03;6.30;99.90
13806;DHT22;6974;53.606;9.872;2023-02-01T15:06:37;6.30;99.90
13806;DHT22;6974;53.606;9.872;2023-02-01T15:09:14;6.30;99.90
13806;DHT22;6974;53.606;9.872;2023-02-01T15:12:00;6.40;99.90
13806;DHT22;6974;53.606;9.872;2023-02-01T15:14:29;6.40;99.90
13806;DHT22;6974;53.606;9.872;2023-02-01T15:16:56;6.40;99.90
13806;DHT22;6974;53.606;9.872;2023-02-01T15:19:26;6.40;99.90
13806;DHT22;6974;53.606;9.872;2023-02-01T15:21:56;6.40;99.90
13806;DHT22;6974;53.606;9.872;2023-02-01T15:24:24;6.40;99.90
13806;DHT22;6974;53.606;9.872;2023-02-01T15:26:53;6.40;99.90
13806;DHT22;6974;53.606;9.872;2023-02-01T15:29:21;6.40;99.90
13806;DHT22;6974;53.606;9.872;2023-02-01T15:31:53;6.40;99.90
13806;DHT22;6974;53.606;9.872;2023-02-01T15:34:20;6.40;99.90
13806;DHT22;6974;53.606;9.872;2023-02-01T15:36:47;6.40;99.90
13806;DHT22;6974;53.606;9.872;2023-02-01T15:39:18;6.40;99.90
13806;DHT22;6974;53.606;9.872;2023-02-01T15:41:50;6.40;99.90
13806;DHT22;6974;53.606;9.872;2023-02-01T15:44:27;6.40;99.90
13806;DHT22;6974;53.606;9.872;2023-02-01T15:49:30;6.30;99.90
13806;DHT22;6974;53.606;9.872;2023-02-01T15:52:00;6.20;99.90
13806;DHT22;6974;53.606;9.872;2023-02-01T15:54:32;6.10;99.90
13806;DHT22;6974;53.606;9.872;2023-02-01T15:57:03;6.20;99.90
13806;DHT22;6974;53.606;9.872;2023-02-01T15:59:42;6.20;99.90
13806;DHT22;6974;53.606;9.872;2023-02-01T16:02:25;6.20;99.90
13806;DHT22;6974;53.606;9.872;2023-02-01T16:04:53;6.20;99.90
13806;DHT22;6974;53.606;9.872;2023-02-01T16:07:27;6.10;99.90
13806;DHT22;6974;53.606;9.872;2023-02-01T16:09:59;6.20;99.90
13806;DHT22;6974;53.606;9.872;2023-02-01T16:12:44;6.20;99.90
13806;DHT22;6974;53.606;9.872;2023-02-01T16:15:14;6.30;99.90
13806;DHT22;6974;53.606;9.872;2023-02-01T16:17:44;6.30;99.90
13806;DHT22;6974;53.606;9.872;2023-02-01T16:20:12;6.40;99.90
13806;DHT22;6974;53.606;9.872;2023-02-01T16:22:39;6.40;99.90
13806;DHT22;6974;53.606;9.872;2023-02-01T16:25:09;6.40;99.90
13806;DHT22;6974;53.606;9.872;2023-02-01T16:27:36;6.40;99.90
13806;DHT22;6974;53.606;9.872;2023-02-01T16:30:06;6.40;99.90
13806;DHT22;6974;53.606;9.872;2023-02-01T16:32:35;6.50;99.90
13806;DHT22;6974;53.606;9.872;2023-02-01T16:35:04;6.50;99.90
13806;DHT22;6974;53.606;9.872;2023-02-01T16:37:34;6.50;99.90
13806;DHT22;6974;53.606;9.872;2023-02-01T16:40:02;6.50;99.90
13806;DHT22;6974;53.606;9.872;2023-02-01T16:42:30;6.50;99.90
13806;DHT22;6974;53.606;9.872;2023-02-01T16:44:58;6.60;99.90
13806;DHT22;6974;53.606;9.872;2023-02-01T16:47:25;6.60;99.90